createdAt,value
2016-09-22T03:00:26.358Z,1021.9
2016-09-22T03:00:51.907Z,1021.88
2016-09-22T03:01:17.457Z,1021.91
2016-09-22T03:01:43.001Z,1021.9
2016-09-22T03:02:08.597Z,1021.91
2016-09-22T03:02:34.141Z,1021.89
2016-09-22T03:02:59.700Z,1021.91
2016-09-22T03:03:25.253Z,1021.89
2016-09-22T03:03:50.805Z,1021.88
2016-09-22T03:04:16.456Z,1021.86
2016-09-22T03:04:41.999Z,1021.87
2016-09-22T03:05:07.965Z,1021.87
2016-09-22T03:06:16.671Z,1021.88
2016-09-22T03:06:42.229Z,1021.88
2016-09-22T03:07:07.765Z,1021.89
2016-09-22T03:07:33.304Z,1021.85
2016-09-22T03:07:58.979Z,1021.84
2016-09-22T03:08:24.576Z,1021.9
2016-09-22T03:08:50.176Z,1021.9
2016-09-22T03:09:15.723Z,1021.89
2016-09-22T03:09:41.447Z,1021.85
2016-09-22T03:10:07.140Z,1021.84
2016-09-22T03:10:32.761Z,1021.86
2016-09-22T03:10:58.394Z,1021.86
2016-09-22T03:11:23.960Z,1021.85
2016-09-22T03:11:49.622Z,1021.84
2016-09-22T03:12:15.191Z,1021.83
2016-09-22T03:12:40.747Z,1021.81
2016-09-22T03:13:06.289Z,1021.83
2016-09-22T03:13:31.859Z,1021.79
2016-09-22T03:13:57.428Z,1021.83
2016-09-22T03:14:23.016Z,1021.77
2016-09-22T03:14:48.591Z,1021.8
2016-09-22T03:15:14.217Z,1021.82
2016-09-22T03:15:39.809Z,1021.8
2016-09-22T03:16:05.367Z,1021.79
2016-09-22T03:16:30.937Z,1021.81
2016-09-22T03:16:56.599Z,1021.79
2016-09-22T03:17:22.188Z,1021.78
2016-09-22T03:17:47.735Z,1021.83
2016-09-22T03:18:13.292Z,1021.83
2016-09-22T03:18:38.845Z,1021.84
2016-09-22T03:19:04.386Z,1021.83
2016-09-22T03:19:29.946Z,1021.81
2016-09-22T03:19:55.478Z,1021.83
2016-09-22T03:20:21.029Z,1021.82
2016-09-22T03:20:46.564Z,1021.84
2016-09-22T03:21:12.104Z,1021.81
2016-09-22T03:21:37.660Z,1021.83
2016-09-22T03:22:03.200Z,1021.77
2016-09-22T03:22:28.735Z,1021.79
2016-09-22T03:22:54.273Z,1021.79
2016-09-22T03:23:19.815Z,1021.78
2016-09-22T03:23:45.372Z,1021.78
2016-09-22T03:24:10.927Z,1021.78
2016-09-22T03:24:36.499Z,1021.77
2016-09-22T03:25:02.080Z,1021.77
2016-09-22T03:25:27.636Z,1021.75
2016-09-22T03:25:53.248Z,1021.79
2016-09-22T03:26:18.882Z,1021.72
2016-09-22T03:26:44.404Z,1021.76
2016-09-22T03:27:09.938Z,1021.75
2016-09-22T03:27:35.611Z,1021.78
2016-09-22T03:28:01.133Z,1021.74
2016-09-22T03:28:26.676Z,1021.77
2016-09-22T03:28:52.222Z,1021.78
2016-09-22T03:29:17.764Z,1021.7
2016-09-22T03:29:43.316Z,1021.75
2016-09-22T03:30:08.940Z,1021.75
2016-09-22T03:30:34.542Z,1021.76
2016-09-22T03:31:00.122Z,1021.77
2016-09-22T03:31:25.692Z,1021.74
2016-09-22T03:31:51.271Z,1021.79
2016-09-22T03:32:16.834Z,1021.75
2016-09-22T03:32:42.408Z,1021.79
2016-09-22T03:33:07.972Z,1021.76
2016-09-22T03:33:33.559Z,1021.76
2016-09-22T03:33:59.125Z,1021.76
2016-09-22T03:34:24.690Z,1021.75
2016-09-22T03:34:50.292Z,1021.75
2016-09-22T03:35:15.968Z,1021.73
2016-09-22T03:35:41.531Z,1021.75
2016-09-22T03:36:07.107Z,1021.77
2016-09-22T03:36:32.807Z,1021.76
2016-09-22T03:36:58.346Z,1021.78
2016-09-22T03:37:23.889Z,1021.73
2016-09-22T03:37:49.425Z,1021.72
2016-09-22T03:38:14.967Z,1021.73
2016-09-22T03:38:40.515Z,1021.77
2016-09-22T03:39:06.057Z,1021.76
2016-09-22T03:39:31.631Z,1021.76
2016-09-22T03:39:57.308Z,1021.78
2016-09-22T03:40:22.849Z,1021.78
2016-09-22T03:40:48.422Z,1021.8
2016-09-22T03:41:13.984Z,1021.81
2016-09-22T03:41:39.535Z,1021.79
2016-09-22T03:42:05.119Z,1021.76
2016-09-22T03:42:30.688Z,1021.78
2016-09-22T03:42:56.249Z,1021.73
2016-09-22T03:43:21.797Z,1021.75
2016-09-22T03:43:47.551Z,1021.77
2016-09-22T03:44:13.119Z,1021.76
2016-09-22T03:44:38.681Z,1021.73
2016-09-22T03:45:04.383Z,1021.76
2016-09-22T03:45:30.000Z,1021.76
2016-09-22T03:45:55.560Z,1021.77
2016-09-22T03:46:21.124Z,1021.75
2016-09-22T03:46:46.704Z,1021.76
2016-09-22T03:47:12.306Z,1021.71
2016-09-22T03:47:37.883Z,1021.75
2016-09-22T03:48:03.556Z,1021.76
2016-09-22T03:48:29.114Z,1021.75
2016-09-22T03:48:54.728Z,1021.76
2016-09-22T03:49:20.305Z,1021.73
2016-09-22T03:49:45.851Z,1021.77
2016-09-22T03:50:11.434Z,1021.75
2016-09-22T03:50:37.000Z,1021.78
2016-09-22T03:51:02.610Z,1021.73
2016-09-22T03:51:28.195Z,1021.71
2016-09-22T03:51:53.719Z,1021.73
2016-09-22T03:52:19.267Z,1021.73
2016-09-22T03:52:44.835Z,1021.72
2016-09-22T03:53:10.413Z,1021.7
2016-09-22T03:53:35.957Z,1021.69
2016-09-22T03:54:01.586Z,1021.69
2016-09-22T03:54:27.162Z,1021.71
2016-09-22T03:54:52.828Z,1021.68
2016-09-22T03:55:18.407Z,1021.7
2016-09-22T03:55:43.969Z,1021.68
2016-09-22T03:56:09.566Z,1021.69
2016-09-22T03:56:35.115Z,1021.71
2016-09-22T03:57:00.714Z,1021.72
2016-09-22T03:57:26.281Z,1021.71
2016-09-22T03:57:51.850Z,1021.72
2016-09-22T03:58:17.530Z,1021.66
2016-09-22T03:58:43.125Z,1021.69
2016-09-22T03:59:08.707Z,1021.67
2016-09-22T03:59:34.378Z,1021.67
2016-09-22T03:59:59.978Z,1021.68
2016-09-22T04:00:25.549Z,1021.72
2016-09-22T04:00:51.109Z,1021.67
2016-09-22T04:01:16.727Z,1021.69
2016-09-22T04:01:42.305Z,1021.66
2016-09-22T04:02:07.898Z,1021.68
2016-09-22T04:02:33.469Z,1021.73
2016-09-22T04:02:59.007Z,1021.68
2016-09-22T04:03:24.551Z,1021.68
2016-09-22T04:03:50.092Z,1021.62
2016-09-22T04:04:15.630Z,1021.67
2016-09-22T04:04:41.170Z,1021.7
2016-09-22T04:05:06.712Z,1021.67
2016-09-22T04:05:32.255Z,1021.67
2016-09-22T04:05:57.872Z,1021.68
2016-09-22T04:06:23.429Z,1021.65
2016-09-22T04:06:48.984Z,1021.64
2016-09-22T04:07:14.593Z,1021.66
2016-09-22T04:07:40.151Z,1021.62
2016-09-22T04:08:05.694Z,1021.63
2016-09-22T04:08:31.254Z,1021.67
2016-09-22T04:08:56.788Z,1021.63
2016-09-22T04:09:22.322Z,1021.6
2016-09-22T04:09:47.995Z,1021.63
2016-09-22T04:10:13.534Z,1021.65
2016-09-22T04:10:39.097Z,1021.66
2016-09-22T04:11:04.633Z,1021.63
2016-09-22T04:11:30.193Z,1021.65
2016-09-22T04:11:55.802Z,1021.64
2016-09-22T04:12:21.360Z,1021.61
2016-09-22T04:12:46.905Z,1021.68
2016-09-22T04:13:12.574Z,1021.63
2016-09-22T04:13:38.150Z,1021.59
2016-09-22T04:14:03.685Z,1021.6
2016-09-22T04:14:29.252Z,1021.61
2016-09-22T04:14:54.803Z,1021.62
2016-09-22T04:15:20.381Z,1021.59
2016-09-22T04:15:45.984Z,1021.59
2016-09-22T04:16:11.543Z,1021.62
2016-09-22T04:16:37.108Z,1021.58
2016-09-22T04:17:02.685Z,1021.6
2016-09-22T04:17:28.257Z,1021.61
2016-09-22T04:17:53.808Z,1021.62
2016-09-22T04:18:19.378Z,1021.63
2016-09-22T04:18:44.944Z,1021.64
2016-09-22T04:19:10.503Z,1021.64
2016-09-22T04:19:36.178Z,1021.64
2016-09-22T04:20:01.787Z,1021.64
2016-09-22T04:20:27.346Z,1021.68
2016-09-22T04:20:52.978Z,1021.69
2016-09-22T04:21:18.536Z,1021.66
2016-09-22T04:21:44.113Z,1021.69
2016-09-22T04:22:09.739Z,1021.64
2016-09-22T04:22:35.309Z,1021.67
2016-09-22T04:23:00.876Z,1021.72
2016-09-22T04:23:26.413Z,1021.67
2016-09-22T04:23:52.125Z,1021.7
2016-09-22T04:24:17.696Z,1021.72
2016-09-22T04:24:43.343Z,1021.74
2016-09-22T04:25:08.988Z,1021.71
2016-09-22T04:25:34.544Z,1021.67
2016-09-22T04:26:00.117Z,1021.74
2016-09-22T04:26:25.668Z,1021.73
2016-09-22T04:26:51.292Z,1021.75
2016-09-22T04:27:16.852Z,1021.73
2016-09-22T04:27:42.751Z,1021.73
2016-09-22T04:28:08.471Z,1021.8
2016-09-22T04:28:34.037Z,1021.73
2016-09-22T04:28:59.599Z,1021.76
2016-09-22T04:29:25.179Z,1021.75
2016-09-22T04:29:50.795Z,1021.79
2016-09-22T04:30:16.405Z,1021.76
2016-09-22T04:30:41.966Z,1021.75
2016-09-22T04:31:07.645Z,1021.77
2016-09-22T04:31:33.236Z,1021.74
2016-09-22T04:31:58.794Z,1021.76
2016-09-22T04:32:24.352Z,1021.76
2016-09-22T04:32:50.060Z,1021.75
2016-09-22T04:33:15.592Z,1021.76
2016-09-22T04:33:41.236Z,1021.74
2016-09-22T04:34:06.805Z,1021.76
2016-09-22T04:34:32.331Z,1021.76
2016-09-22T04:34:57.850Z,1021.78
2016-09-22T04:35:23.448Z,1021.76
2016-09-22T04:35:48.989Z,1021.76
2016-09-22T04:36:14.651Z,1021.77
2016-09-22T04:36:40.193Z,1021.78
2016-09-22T04:37:05.764Z,1021.78
2016-09-22T04:37:31.321Z,1021.77
2016-09-22T04:37:57.010Z,1021.79
2016-09-22T04:38:22.591Z,1021.79
2016-09-22T04:38:48.156Z,1021.79
2016-09-22T04:39:13.820Z,1021.8
2016-09-22T04:39:39.410Z,1021.8
2016-09-22T04:40:04.964Z,1021.82
2016-09-22T04:40:30.618Z,1021.82
2016-09-22T04:40:56.211Z,1021.79
2016-09-22T04:41:21.774Z,1021.79
2016-09-22T04:44:01.592Z,1021.78
2016-09-22T04:45:14.986Z,1021.81
2016-09-22T04:46:18.139Z,1021.79
2016-09-22T04:46:43.728Z,1021.79
2016-09-22T04:47:09.287Z,1021.84
2016-09-22T04:47:34.837Z,1021.8
2016-09-22T04:48:00.398Z,1021.78
2016-09-22T04:48:25.954Z,1021.79
2016-09-22T04:48:51.560Z,1021.79
2016-09-22T04:49:17.279Z,1021.81
2016-09-22T04:49:42.853Z,1021.75
2016-09-22T04:50:08.527Z,1021.8
2016-09-22T04:50:34.126Z,1021.8
2016-09-22T04:50:59.667Z,1021.82
2016-09-22T04:51:25.272Z,1021.82
2016-09-22T04:51:50.909Z,1021.82
2016-09-22T04:52:16.460Z,1021.81
2016-09-22T04:52:41.999Z,1021.79
2016-09-22T04:53:07.654Z,1021.82
2016-09-22T04:53:33.219Z,1021.83
2016-09-22T04:53:58.764Z,1021.86
2016-09-22T04:54:24.310Z,1021.85
2016-09-22T04:54:49.859Z,1021.85
2016-09-22T04:55:15.446Z,1021.8
2016-09-22T04:55:41.075Z,1021.82
2016-09-22T04:56:06.689Z,1021.81
2016-09-22T04:56:32.276Z,1021.8
2016-09-22T04:56:57.923Z,1021.86
2016-09-22T04:57:23.497Z,1021.83
2016-09-22T04:57:49.044Z,1021.85
2016-09-22T04:58:14.673Z,1021.84
2016-09-22T04:59:17.921Z,1021.79
2016-09-22T05:00:16.000Z,1021.79
2016-09-22T05:00:41.614Z,1021.85
2016-09-22T05:01:07.272Z,1021.79
2016-09-22T05:01:32.932Z,1021.82
2016-09-22T05:01:58.499Z,1021.8
2016-09-22T05:02:24.068Z,1021.84
2016-09-22T05:02:49.650Z,1021.86
2016-09-22T05:03:15.202Z,1021.84
2016-09-22T05:03:40.811Z,1021.84
2016-09-22T05:04:06.364Z,1021.81
2016-09-22T05:04:31.903Z,1021.81
2016-09-22T05:04:57.447Z,1021.88
2016-09-22T05:05:23.009Z,1021.83
2016-09-22T05:05:48.594Z,1021.86
2016-09-22T05:06:14.132Z,1021.88
2016-09-22T05:06:39.678Z,1021.86
2016-09-22T05:07:05.209Z,1021.83
2016-09-22T05:07:30.737Z,1021.85
2016-09-22T05:07:56.416Z,1021.86
2016-09-22T05:08:22.027Z,1021.85
2016-09-22T05:08:47.642Z,1021.85
2016-09-22T05:09:13.221Z,1021.86
2016-09-22T05:09:38.849Z,1021.85
2016-09-22T05:10:04.415Z,1021.83
2016-09-22T05:10:30.001Z,1021.84
2016-09-22T05:10:55.577Z,1021.88
2016-09-22T05:11:21.116Z,1021.86
2016-09-22T05:11:46.690Z,1021.87
2016-09-22T05:12:12.260Z,1021.88
2016-09-22T05:12:37.838Z,1021.86
2016-09-22T05:13:03.438Z,1021.86
2016-09-22T05:13:28.988Z,1021.85
2016-09-22T05:13:54.533Z,1021.89
2016-09-22T05:14:20.071Z,1021.88
2016-09-22T05:14:45.637Z,1021.88
2016-09-22T05:15:11.181Z,1021.88
2016-09-22T05:15:36.786Z,1021.89
2016-09-22T05:16:02.345Z,1021.89
2016-09-22T05:16:27.916Z,1021.9
2016-09-22T05:16:53.567Z,1021.96
2016-09-22T05:17:19.137Z,1021.93
2016-09-22T05:17:44.699Z,1021.91
2016-09-22T05:18:10.239Z,1021.95
2016-09-22T05:18:35.785Z,1021.94
2016-09-22T05:19:01.368Z,1021.96
2016-09-22T05:19:26.901Z,1021.91
2016-09-22T05:19:52.462Z,1021.96
2016-09-22T05:20:18.812Z,1021.97
2016-09-22T05:20:44.355Z,1021.98
2016-09-22T05:21:09.914Z,1021.97
2016-09-22T05:21:35.463Z,1021.98
2016-09-22T05:22:01.082Z,1021.99
2016-09-22T05:22:26.652Z,1021.99
2016-09-22T05:22:52.224Z,1021.97
2016-09-22T05:23:17.754Z,1021.97
2016-09-22T05:23:43.323Z,1021.96
2016-09-22T05:24:08.898Z,1021.96
2016-09-22T05:24:34.439Z,1022.01
2016-09-22T05:25:37.888Z,1022.01
2016-09-22T05:26:03.453Z,1021.97
2016-09-22T05:26:29.027Z,1022.01
2016-09-22T05:26:54.584Z,1021.99
2016-09-22T05:27:20.133Z,1022
2016-09-22T05:27:45.724Z,1022.04
2016-09-22T05:28:11.406Z,1022.08
2016-09-22T05:28:37.103Z,1022.03
2016-09-22T05:29:02.680Z,1022.03
2016-09-22T05:29:28.237Z,1022.03
2016-09-22T05:29:53.824Z,1022.03
2016-09-22T05:30:19.372Z,1021.98
2016-09-22T05:30:44.996Z,1021.99
2016-09-22T05:31:10.626Z,1022.01
2016-09-22T05:31:36.176Z,1022.02
2016-09-22T05:32:01.741Z,1022.02
2016-09-22T05:32:27.402Z,1022
2016-09-22T05:32:53.056Z,1022.03
2016-09-22T05:33:18.617Z,1022.05
2016-09-22T05:33:44.212Z,1022.03
2016-09-22T05:34:09.756Z,1022.03
2016-09-22T05:34:35.316Z,1021.99
2016-09-22T05:35:00.883Z,1021.99
2016-09-22T05:35:26.464Z,1021.99
2016-09-22T05:35:52.009Z,1022.01
2016-09-22T05:36:17.612Z,1022.03
2016-09-22T05:37:25.977Z,1022.04
2016-09-22T05:37:51.561Z,1022.06
2016-09-22T05:38:17.197Z,1022.05
2016-09-22T05:38:42.767Z,1022.06
2016-09-22T05:39:08.324Z,1022.06
2016-09-22T05:39:33.891Z,1022.08
2016-09-22T05:39:59.485Z,1022.07
2016-09-22T05:40:25.092Z,1022.03
2016-09-22T05:40:50.658Z,1022.06
2016-09-22T05:41:16.237Z,1022.08
2016-09-22T05:41:41.864Z,1022.13
2016-09-22T05:42:07.484Z,1022.07
2016-09-22T05:42:33.073Z,1022.08
2016-09-22T05:42:58.632Z,1022.09
2016-09-22T05:43:24.229Z,1022.06
2016-09-22T05:43:49.777Z,1022.15
2016-09-22T05:44:15.354Z,1022.1
2016-09-22T05:44:40.892Z,1022.15
2016-09-22T05:45:06.440Z,1022.11
2016-09-22T05:45:32.053Z,1022.09
2016-09-22T05:45:57.644Z,1022.18
2016-09-22T05:46:23.218Z,1022.12
2016-09-22T05:46:48.874Z,1022.15
2016-09-22T05:47:14.553Z,1022.16
2016-09-22T05:47:40.104Z,1022.09
2016-09-22T05:48:05.687Z,1022.13
2016-09-22T05:48:31.386Z,1022.14
2016-09-22T05:48:57.077Z,1022.1
2016-09-22T05:49:22.639Z,1022.14
2016-09-22T05:49:48.196Z,1022.13
2016-09-22T05:50:13.902Z,1022.13
2016-09-22T05:50:39.460Z,1022.15
2016-09-22T05:51:05.013Z,1022.12
2016-09-22T05:51:30.582Z,1022.16
2016-09-22T05:51:56.286Z,1022.13
2016-09-22T05:52:21.845Z,1022.14
2016-09-22T05:52:47.410Z,1022.14
2016-09-22T05:53:13.076Z,1022.14
2016-09-22T05:53:38.690Z,1022.14
2016-09-22T05:54:04.258Z,1022.17
2016-09-22T05:54:29.807Z,1022.14
2016-09-22T05:54:55.377Z,1022.16
2016-09-22T05:55:20.938Z,1022.17
2016-09-22T05:55:46.504Z,1022.14
2016-09-22T05:56:12.047Z,1022.16
2016-09-22T05:56:37.714Z,1022.13
2016-09-22T05:57:03.318Z,1022.15
2016-09-22T05:57:28.880Z,1022.15
2016-09-22T05:57:54.507Z,1022.18
2016-09-22T05:58:20.054Z,1022.16
2016-09-22T05:58:45.611Z,1022.14
2016-09-22T05:59:11.182Z,1022.17
2016-09-22T05:59:36.865Z,1022.16
2016-09-22T06:00:02.446Z,1022.15
2016-09-22T06:01:00.570Z,1022.17
2016-09-22T06:01:26.132Z,1022.2
2016-09-22T06:01:51.795Z,1022.22
2016-09-22T06:02:17.362Z,1022.22
2016-09-22T06:02:42.930Z,1022.17
2016-09-22T06:03:08.523Z,1022.18
2016-09-22T06:04:21.922Z,1022.15
2016-09-22T06:04:47.692Z,1022.18
2016-09-22T06:05:13.225Z,1022.11
2016-09-22T06:05:38.802Z,1022.18
2016-09-22T06:06:04.339Z,1022.15
2016-09-22T06:06:29.881Z,1022.12
2016-09-22T06:06:55.554Z,1022.13
2016-09-22T06:07:21.119Z,1022.17
2016-09-22T06:07:46.656Z,1022.13
2016-09-22T06:08:12.195Z,1022.13
2016-09-22T06:08:37.774Z,1022.15
2016-09-22T06:09:03.326Z,1022.18
2016-09-22T06:09:28.897Z,1022.15
2016-09-22T06:09:54.444Z,1022.16
2016-09-22T06:10:19.971Z,1022.23
2016-09-22T06:10:45.519Z,1022.17
2016-09-22T06:11:11.081Z,1022.19
2016-09-22T06:11:36.658Z,1022.22
2016-09-22T06:12:02.191Z,1022.16
2016-09-22T06:12:27.724Z,1022.21
2016-09-22T06:12:53.282Z,1022.2
2016-09-22T06:13:18.845Z,1022.2
2016-09-22T06:14:17.120Z,1022.22
2016-09-22T06:14:42.723Z,1022.23
2016-09-22T06:15:08.344Z,1022.23
2016-09-22T06:15:33.962Z,1022.27
2016-09-22T06:15:59.521Z,1022.29
2016-09-22T06:16:25.075Z,1022.28
2016-09-22T06:16:50.709Z,1022.25
2016-09-22T06:17:16.234Z,1022.26
2016-09-22T06:18:24.507Z,1022.3
2016-09-22T06:18:50.055Z,1022.32
2016-09-22T06:19:15.822Z,1022.27
2016-09-22T06:19:41.375Z,1022.3
2016-09-22T06:20:07.148Z,1022.31
2016-09-22T06:20:32.733Z,1022.32
2016-09-22T06:21:46.255Z,1022.32
2016-09-22T06:22:11.850Z,1022.32
2016-09-22T06:22:37.420Z,1022.32
2016-09-22T06:23:02.975Z,1022.31
2016-09-22T06:23:28.650Z,1022.32
2016-09-22T06:23:54.201Z,1022.29
2016-09-22T06:24:19.773Z,1022.3
2016-09-22T06:24:45.443Z,1022.29
2016-09-22T06:25:11.042Z,1022.33
2016-09-22T06:25:36.601Z,1022.3
2016-09-22T06:26:02.155Z,1022.31
2016-09-22T06:26:27.764Z,1022.28
2016-09-22T06:26:53.392Z,1022.32
2016-09-22T06:27:18.965Z,1022.31
2016-09-22T06:27:44.508Z,1022.34
2016-09-22T06:28:10.054Z,1022.31
2016-09-22T06:28:35.624Z,1022.32
2016-09-22T06:29:01.176Z,1022.34
2016-09-22T06:29:26.771Z,1022.33
2016-09-22T06:29:52.348Z,1022.32
2016-09-22T06:30:17.951Z,1022.33
2016-09-22T06:30:43.549Z,1022.38
2016-09-22T06:31:09.135Z,1022.36
2016-09-22T06:31:34.819Z,1022.34
2016-09-22T06:32:00.377Z,1022.31
2016-09-22T06:32:25.967Z,1022.29
2016-09-22T06:32:51.527Z,1022.3
2016-09-22T06:33:17.271Z,1022.3
2016-09-22T06:33:42.827Z,1022.32
2016-09-22T06:34:08.435Z,1022.37
2016-09-22T06:34:34.054Z,1022.35
2016-09-22T06:34:59.630Z,1022.35
2016-09-22T06:35:25.233Z,1022.38
2016-09-22T06:35:50.801Z,1022.35
2016-09-22T06:36:16.369Z,1022.36
2016-09-22T06:36:41.945Z,1022.36
2016-09-22T06:37:07.660Z,1022.37
2016-09-22T06:37:33.226Z,1022.4
2016-09-22T06:37:58.781Z,1022.34
2016-09-22T06:38:24.376Z,1022.38
2016-09-22T06:38:50.083Z,1022.4
2016-09-22T06:39:15.645Z,1022.4
2016-09-22T06:39:41.186Z,1022.41
2016-09-22T06:40:06.854Z,1022.36
2016-09-22T06:41:15.194Z,1022.4
2016-09-22T06:41:40.765Z,1022.43
2016-09-22T06:42:06.413Z,1022.41
2016-09-22T06:42:31.987Z,1022.43
2016-09-22T06:42:57.759Z,1022.46
2016-09-22T06:43:23.358Z,1022.43
2016-09-22T06:43:48.934Z,1022.4
2016-09-22T06:44:14.602Z,1022.43
2016-09-22T06:44:40.178Z,1022.43
2016-09-22T06:45:05.726Z,1022.45
2016-09-22T06:45:31.394Z,1022.48
2016-09-22T06:45:56.936Z,1022.44
2016-09-22T06:47:15.545Z,1022.43
2016-09-22T06:47:41.110Z,1022.46
2016-09-22T06:48:06.708Z,1022.45
2016-09-22T06:48:32.260Z,1022.46
2016-09-22T06:48:57.799Z,1022.46
2016-09-22T06:49:23.344Z,1022.48
2016-09-22T06:49:48.902Z,1022.48
2016-09-22T06:50:14.467Z,1022.46
2016-09-22T06:50:40.037Z,1022.47
2016-09-22T06:51:05.593Z,1022.48
2016-09-22T06:51:31.119Z,1022.46
2016-09-22T06:51:56.740Z,1022.42
2016-09-22T06:52:22.375Z,1022.44
2016-09-22T06:52:47.918Z,1022.43
2016-09-22T06:53:13.535Z,1022.41
2016-09-22T06:53:39.090Z,1022.41
2016-09-22T06:54:04.691Z,1022.36
2016-09-22T06:54:30.263Z,1022.37
2016-09-22T06:54:55.810Z,1022.39
2016-09-22T06:55:21.347Z,1022.39
2016-09-22T06:55:46.894Z,1022.39
2016-09-22T06:56:12.475Z,1022.34
2016-09-22T06:56:38.035Z,1022.35
2016-09-22T06:57:03.632Z,1022.39
2016-09-22T06:57:29.215Z,1022.37
2016-09-22T06:57:54.759Z,1022.4
2016-09-22T06:58:20.459Z,1022.39
2016-09-22T06:58:46.027Z,1022.38
2016-09-22T06:59:11.624Z,1022.38
2016-09-22T06:59:37.160Z,1022.4
2016-09-22T07:00:02.777Z,1022.38
2016-09-22T07:00:28.328Z,1022.43
2016-09-22T07:00:53.882Z,1022.45
2016-09-22T07:01:19.429Z,1022.44
2016-09-22T07:01:44.956Z,1022.42
2016-09-22T07:02:10.502Z,1022.45
2016-09-22T07:02:36.039Z,1022.47
2016-09-22T07:03:01.613Z,1022.48
2016-09-22T07:03:27.170Z,1022.47
2016-09-22T07:03:52.710Z,1022.47
2016-09-22T07:04:18.321Z,1022.49
2016-09-22T07:04:43.894Z,1022.48
2016-09-22T07:05:09.571Z,1022.51
2016-09-22T07:05:35.118Z,1022.51
2016-09-22T07:06:00.716Z,1022.51
2016-09-22T07:06:26.368Z,1022.48
2016-09-22T07:06:51.994Z,1022.5
2016-09-22T07:07:17.571Z,1022.51
2016-09-22T07:07:43.119Z,1022.52
2016-09-22T07:08:08.706Z,1022.48
2016-09-22T07:08:34.251Z,1022.51
2016-09-22T07:08:59.824Z,1022.54
2016-09-22T07:09:25.386Z,1022.5
2016-09-22T07:09:50.941Z,1022.5
2016-09-22T07:10:16.603Z,1022.51
2016-09-22T07:10:42.193Z,1022.51
2016-09-22T07:11:07.762Z,1022.49
2016-09-22T07:11:33.346Z,1022.55
2016-09-22T07:11:58.904Z,1022.49
2016-09-22T07:12:24.450Z,1022.53
2016-09-22T07:12:50.020Z,1022.49
2016-09-22T07:13:15.591Z,1022.54
2016-09-22T07:13:41.150Z,1022.51
2016-09-22T07:14:06.725Z,1022.54
2016-09-22T07:14:32.341Z,1022.55
2016-09-22T07:14:57.928Z,1022.49
2016-09-22T07:15:23.495Z,1022.54
2016-09-22T07:15:49.107Z,1022.51
2016-09-22T07:16:14.685Z,1022.52
2016-09-22T07:16:40.269Z,1022.5
2016-09-22T07:17:05.893Z,1022.52
2016-09-22T07:17:31.462Z,1022.49
2016-09-22T07:17:57.026Z,1022.5
2016-09-22T07:18:22.682Z,1022.43
2016-09-22T07:18:48.243Z,1022.42
2016-09-22T07:19:13.849Z,1022.42
2016-09-22T07:19:39.437Z,1022.44
2016-09-22T07:20:05.080Z,1022.42
2016-09-22T07:20:30.655Z,1022.4
2016-09-22T07:22:21.713Z,1022.39
2016-09-22T07:22:47.286Z,1022.37
2016-09-22T07:23:12.835Z,1022.34
2016-09-22T07:24:21.356Z,1022.38
2016-09-22T07:24:46.924Z,1022.38
2016-09-22T07:25:12.483Z,1022.39
2016-09-22T07:26:20.756Z,1022.37
2016-09-22T07:26:46.392Z,1022.35
2016-09-22T07:27:12.066Z,1022.39
2016-09-22T07:27:37.634Z,1022.4
2016-09-22T07:28:03.249Z,1022.4
2016-09-22T07:28:28.820Z,1022.44
2016-09-22T07:28:54.376Z,1022.38
2016-09-22T07:29:19.942Z,1022.36
2016-09-22T07:29:45.516Z,1022.42
2016-09-22T07:30:11.113Z,1022.36
2016-09-22T07:30:36.664Z,1022.4
2016-09-22T07:31:02.257Z,1022.43
2016-09-22T07:31:27.832Z,1022.4
2016-09-22T07:31:53.369Z,1022.43
2016-09-22T07:32:18.980Z,1022.44
2016-09-22T07:32:44.510Z,1022.49
2016-09-22T07:33:10.139Z,1022.48
2016-09-22T07:33:35.693Z,1022.45
2016-09-22T07:34:01.290Z,1022.49
2016-09-22T07:34:26.850Z,1022.4
2016-09-22T07:34:52.482Z,1022.45
2016-09-22T07:35:18.088Z,1022.42
2016-09-22T07:35:43.838Z,1022.42
2016-09-22T07:36:09.410Z,1022.47
2016-09-22T07:36:35.048Z,1022.46
2016-09-22T07:37:00.584Z,1022.46
2016-09-22T07:38:19.140Z,1022.47
2016-09-22T07:38:44.718Z,1022.48
2016-09-22T07:39:10.334Z,1022.51
2016-09-22T07:39:35.900Z,1022.47
2016-09-22T07:40:01.466Z,1022.48
2016-09-22T07:40:27.030Z,1022.46
2016-09-22T07:40:52.592Z,1022.46
2016-09-22T07:41:18.157Z,1022.45
2016-09-22T07:41:43.733Z,1022.46
2016-09-22T07:42:09.302Z,1022.46
2016-09-22T07:42:34.939Z,1022.46
2016-09-22T07:43:00.496Z,1022.49
2016-09-22T07:43:26.058Z,1022.48
2016-09-22T07:43:51.708Z,1022.46
2016-09-22T07:44:17.260Z,1022.5
2016-09-22T07:44:42.844Z,1022.52
2016-09-22T07:45:08.425Z,1022.5
2016-09-22T07:45:34.074Z,1022.5
2016-09-22T07:45:59.527Z,1022.5
2016-09-22T07:46:25.096Z,1022.53
2016-09-22T07:46:50.661Z,1022.55
2016-09-22T07:47:16.375Z,1022.52
2016-09-22T07:47:41.926Z,1022.51
2016-09-22T07:48:07.481Z,1022.49
2016-09-22T07:48:33.048Z,1022.51
2016-09-22T07:48:58.715Z,1022.51
2016-09-22T07:49:24.279Z,1022.54
2016-09-22T07:49:49.814Z,1022.54
2016-09-22T07:50:15.416Z,1022.55
2016-09-22T07:50:40.964Z,1022.54
2016-09-22T07:51:06.531Z,1022.55
2016-09-22T07:51:32.142Z,1022.53
2016-09-22T07:51:57.677Z,1022.55
2016-09-22T07:52:23.278Z,1022.55
2016-09-22T07:52:48.911Z,1022.52
2016-09-22T07:53:14.491Z,1022.52
2016-09-22T07:53:40.049Z,1022.51
2016-09-22T07:54:05.722Z,1022.51
2016-09-22T07:54:31.275Z,1022.53
2016-09-22T07:54:56.860Z,1022.51
2016-09-22T07:55:22.486Z,1022.52
2016-09-22T07:55:48.060Z,1022.56
2016-09-22T07:56:13.620Z,1022.51
2016-09-22T07:56:39.192Z,1022.53
2016-09-22T07:57:04.902Z,1022.55
2016-09-22T07:57:30.516Z,1022.56
2016-09-22T07:57:56.078Z,1022.56
2016-09-22T07:58:21.759Z,1022.56
2016-09-22T07:58:47.335Z,1022.6
2016-09-22T07:59:12.913Z,1022.55
2016-09-22T07:59:38.583Z,1022.58
2016-09-22T08:00:04.127Z,1022.59
2016-09-22T08:00:29.660Z,1022.58
2016-09-22T08:00:55.335Z,1022.53
2016-09-22T08:01:20.882Z,1022.6
2016-09-22T08:01:46.476Z,1022.56
2016-09-22T08:02:12.070Z,1022.59
2016-09-22T08:02:37.731Z,1022.56
2016-09-22T08:03:03.337Z,1022.57
2016-09-22T08:03:28.909Z,1022.56
2016-09-22T08:03:54.457Z,1022.55
2016-09-22T08:04:20.126Z,1022.58
2016-09-22T08:04:45.749Z,1022.52
2016-09-22T08:05:11.311Z,1022.58
2016-09-22T08:05:36.960Z,1022.53
2016-09-22T08:06:02.587Z,1022.57
2016-09-22T08:06:28.155Z,1022.55
2016-09-22T08:06:53.730Z,1022.53
2016-09-22T08:07:19.297Z,1022.58
2016-09-22T08:07:44.854Z,1022.57
2016-09-22T08:08:10.590Z,1022.52
2016-09-22T08:08:36.171Z,1022.57
2016-09-22T08:09:01.759Z,1022.55
2016-09-22T08:09:27.361Z,1022.58
2016-09-22T08:09:52.933Z,1022.52
2016-09-22T08:10:18.500Z,1022.54
2016-09-22T08:10:44.067Z,1022.54
2016-09-22T08:11:09.814Z,1022.54
2016-09-22T08:11:35.366Z,1022.53
2016-09-22T08:12:00.958Z,1022.55
2016-09-22T08:12:26.515Z,1022.54
2016-09-22T08:13:24.648Z,1022.51
2016-09-22T08:13:50.238Z,1022.57
2016-09-22T08:14:15.810Z,1022.59
2016-09-22T08:14:41.360Z,1022.6
2016-09-22T08:15:06.934Z,1022.58
2016-09-22T08:15:32.511Z,1022.56
2016-09-22T08:15:58.061Z,1022.56
2016-09-22T08:16:23.624Z,1022.62
2016-09-22T08:16:49.191Z,1022.57
2016-09-22T08:17:14.742Z,1022.53
2016-09-22T08:17:40.361Z,1022.57
2016-09-22T08:18:05.912Z,1022.56
2016-09-22T08:18:31.475Z,1022.61
2016-09-22T08:18:57.053Z,1022.6
2016-09-22T08:19:22.627Z,1022.59
2016-09-22T08:19:48.175Z,1022.62
2016-09-22T08:20:13.720Z,1022.6
2016-09-22T08:20:39.330Z,1022.61
2016-09-22T08:21:05.013Z,1022.6
2016-09-22T08:21:30.585Z,1022.59
2016-09-22T08:21:56.139Z,1022.6
2016-09-22T08:22:21.764Z,1022.62
2016-09-22T08:22:47.326Z,1022.59
2016-09-22T08:23:12.950Z,1022.61
2016-09-22T08:23:38.524Z,1022.61
2016-09-22T08:24:04.149Z,1022.62
2016-09-22T08:24:29.727Z,1022.59
2016-09-22T08:24:55.277Z,1022.6
2016-09-22T08:25:20.869Z,1022.63
2016-09-22T08:25:46.440Z,1022.65
2016-09-22T08:26:12.014Z,1022.64
2016-09-22T08:26:37.564Z,1022.65